Lodi, New Jersey
Current Conditions -  °F | °C
As of 5:51 PM on Thursday 20 Nov 2014 (Local Time) from KTEB Reporting Station
Clear Clear  
Wind Chill: 33°   Ceiling: Unl
Heat Index: 41°   Visibility: 10mi
Dew Point: 14°   Wind: 14mph
Humidity: 33%   Direction: 270°W
Pressure: 29.9"   Gusts: 20mph
Location:  40.88°N, 74.08°W
Report Text: KTEB 202251Z 27012G17KT 10SM CLR 05/M10 A2990 RMK AO2 SLP125 T00501100
Loading
Personal Weather Stations






























Interactive Weather Map New forecast layout! Learn more

10-Day Weather Forecast

Advertisements
Track Severe Weather on mobile